Saint Clair Shores, Michigan
Current Conditions -  °F | °C
As of 8:55 AM on Friday 31 Oct 2014 (Local Time) from KMTC Reporting Station
Light Rain Light Rain  
Wind Chill: 41°   Ceiling: 3000
Heat Index: 44°   Visibility: 7mi
Dew Point: 41°   Wind: 6mph
Humidity: 88%   Direction: 230°SW
Pressure: 29.87"   Gusts: NA
Location:  42.58°N, 82.78°W
Report Text: KMTC 311255Z 23005KT 7SM -RA BKN030 OVC045 07/05 A2987 RMK SLP126 T00670049
Loading
Personal Weather Stations






























Interactive Weather Map
Tropical Storm Tracking
New forecast layout! Learn more

10-Day Weather Forecast

Advertisements
Track Severe Weather on mobile